createdAt,value
2023-04-21T03:59:01.496Z,0.00
2023-04-21T04:00:01.568Z,0.00
2023-04-21T04:01:01.471Z,0.00
2023-04-21T04:02:01.513Z,0.00
2023-04-21T04:03:01.607Z,0.00
2023-04-21T04:04:01.617Z,0.00
2023-04-21T04:05:01.477Z,0.00
2023-04-21T04:06:01.439Z,0.00
2023-04-21T04:07:01.398Z,0.00
2023-04-21T04:08:01.402Z,0.00
2023-04-21T04:09:01.420Z,0.00
2023-04-21T04:10:01.416Z,0.00
2023-04-21T04:11:01.433Z,0.00
2023-04-21T04:12:01.347Z,0.00
2023-04-21T04:13:01.337Z,0.00
2023-04-21T04:14:01.373Z,0.00
2023-04-21T04:15:01.610Z,0.00
2023-04-21T04:16:01.489Z,0.00
2023-04-21T04:17:01.353Z,0.00
2023-04-21T04:18:01.323Z,0.00
2023-04-21T04:19:01.339Z,0.00
2023-04-21T04:20:01.327Z,0.00
2023-04-21T04:21:01.310Z,0.00
2023-04-21T04:22:01.378Z,0.00
2023-04-21T04:23:01.300Z,0.00
2023-04-21T04:24:01.308Z,0.00
2023-04-21T04:25:01.335Z,0.00
2023-04-21T04:26:01.348Z,5.63
2023-04-21T04:27:01.355Z,5.63
2023-04-21T04:28:01.300Z,5.63
2023-04-21T04:29:01.350Z,5.63
2023-04-21T04:30:01.289Z,5.63
2023-04-21T04:31:01.411Z,5.63
2023-04-21T04:32:01.287Z,5.63
2023-04-21T04:33:01.267Z,5.63
2023-04-21T04:34:01.270Z,5.63
2023-04-21T04:35:01.248Z,5.63
2023-04-21T04:36:01.288Z,5.63
2023-04-21T04:37:01.234Z,5.63
2023-04-21T04:38:01.240Z,11.25
2023-04-21T04:39:01.228Z,11.25
2023-04-21T04:40:01.250Z,11.25
2023-04-21T04:41:01.234Z,11.25
2023-04-21T04:42:01.295Z,11.25
2023-04-21T04:43:01.222Z,11.25
2023-04-21T04:44:01.228Z,11.25
2023-04-21T04:45:01.215Z,11.25
2023-04-21T04:46:01.203Z,11.25
2023-04-21T04:47:01.372Z,11.25
2023-04-21T04:48:01.281Z,11.25
2023-04-21T04:49:01.212Z,11.25
2023-04-21T04:50:01.193Z,16.88
2023-04-21T04:51:01.174Z,16.88
2023-04-21T04:52:01.191Z,16.88
2023-04-21T04:53:01.216Z,16.88
2023-04-21T04:54:01.186Z,16.88
2023-04-21T04:55:01.171Z,16.88
2023-04-21T04:56:02.080Z,16.88
2023-04-21T04:57:01.178Z,22.50
2023-04-21T04:58:01.219Z,22.50
2023-04-21T04:59:01.202Z,22.50
2023-04-21T05:00:01.251Z,22.50
2023-04-21T05:01:01.158Z,22.50
2023-04-21T05:02:01.262Z,28.13
2023-04-21T05:03:01.433Z,28.13
2023-04-21T05:04:01.287Z,28.13
2023-04-21T05:05:01.263Z,28.13
2023-04-21T05:06:01.135Z,28.13
2023-04-21T05:07:01.143Z,28.13
2023-04-21T05:08:01.153Z,28.13
2023-04-21T05:09:01.139Z,28.13
2023-04-21T05:10:01.133Z,28.13
2023-04-21T05:11:01.133Z,28.13
2023-04-21T05:12:01.114Z,28.13
2023-04-21T05:13:01.119Z,28.13
2023-04-21T05:14:01.114Z,28.13
2023-04-21T05:15:01.131Z,28.13
2023-04-21T05:16:01.107Z,28.13
2023-04-21T05:17:01.228Z,28.13
2023-04-21T05:18:01.171Z,28.13
2023-04-21T05:19:01.112Z,33.75
2023-04-21T05:20:01.103Z,33.75
2023-04-21T05:21:01.083Z,33.75
2023-04-21T05:22:01.105Z,33.75
2023-04-21T05:23:01.087Z,33.75
2023-04-21T05:24:01.174Z,28.13
2023-04-21T05:25:01.070Z,28.13
2023-04-21T05:26:04.017Z,28.13
2023-04-21T05:27:01.081Z,28.13
2023-04-21T05:28:01.070Z,28.13
2023-04-21T05:29:01.128Z,28.13
2023-04-21T05:30:01.079Z,33.75
2023-04-21T05:31:01.056Z,33.75
2023-04-21T05:32:01.098Z,28.13
2023-04-21T05:33:01.050Z,28.13
2023-04-21T05:34:01.035Z,28.13
2023-04-21T05:35:01.086Z,33.75
2023-04-21T05:36:01.070Z,33.75
2023-04-21T05:37:01.085Z,33.75
2023-04-21T05:38:01.054Z,33.75
2023-04-21T05:39:01.060Z,33.75
2023-04-21T05:40:01.053Z,33.75
2023-04-21T05:41:01.098Z,33.75
2023-04-21T05:42:01.034Z,33.75
2023-04-21T05:43:01.056Z,33.75
2023-04-21T05:44:01.117Z,33.75
2023-04-21T05:45:01.086Z,33.75
2023-04-21T05:46:01.210Z,39.38
2023-04-21T05:47:01.033Z,45.00
2023-04-21T05:48:01.088Z,50.63
2023-04-21T05:49:01.005Z,39.38
2023-04-21T05:50:01.077Z,50.63
2023-04-21T05:51:01.366Z,56.25
2023-04-21T05:52:01.141Z,50.63
2023-04-21T05:53:01.244Z,50.63
2023-04-21T05:54:00.994Z,50.63
2023-04-21T05:55:01.010Z,61.88
2023-04-21T05:56:01.030Z,73.13
2023-04-21T05:57:01.203Z,73.13
2023-04-21T05:58:00.992Z,78.75
2023-04-21T05:59:01.073Z,78.75
2023-04-21T06:00:00.971Z,84.38
2023-04-21T06:01:01.631Z,84.38
2023-04-21T06:02:01.023Z,84.38
2023-04-21T06:03:01.065Z,90.00
2023-04-21T06:04:01.202Z,90.00
2023-04-21T06:05:01.227Z,90.00
2023-04-21T06:06:00.957Z,90.00
2023-04-21T06:07:00.958Z,90.00
2023-04-21T06:08:00.963Z,90.00
2023-04-21T06:09:00.925Z,90.00
2023-04-21T06:10:00.957Z,90.00
2023-04-21T06:11:00.922Z,90.00
2023-04-21T06:12:00.901Z,90.00
2023-04-21T06:13:00.954Z,90.00
2023-04-21T06:14:00.907Z,90.00
2023-04-21T06:15:00.924Z,95.63
2023-04-21T06:16:00.967Z,95.63
2023-04-21T06:17:00.906Z,90.00
2023-04-21T06:18:01.127Z,90.00
2023-04-21T06:19:00.948Z,95.63
2023-04-21T06:20:00.883Z,95.63
2023-04-21T06:21:00.902Z,95.63
2023-04-21T06:22:00.922Z,95.63
2023-04-21T06:23:00.941Z,95.63
2023-04-21T06:24:00.882Z,95.63
2023-04-21T06:25:00.909Z,95.63
2023-04-21T06:26:01.057Z,95.63
2023-04-21T06:27:00.868Z,95.63
2023-04-21T06:28:00.912Z,95.63
2023-04-21T06:29:00.881Z,95.63
2023-04-21T06:30:00.923Z,101.25
2023-04-21T06:31:00.862Z,101.25
2023-04-21T06:32:00.942Z,101.25
2023-04-21T06:33:00.941Z,106.88
2023-04-21T06:34:00.857Z,106.88
2023-04-21T06:35:00.842Z,106.88
2023-04-21T06:36:00.851Z,106.88
2023-04-21T06:37:00.849Z,106.88
2023-04-21T06:38:00.848Z,106.88
2023-04-21T06:39:00.997Z,106.88
2023-04-21T06:41:33.442Z,112.50
2023-04-21T06:42:33.442Z,112.50
2023-04-21T06:43:33.436Z,112.50
2023-04-21T06:44:33.406Z,118.13
2023-04-21T06:45:33.446Z,118.13
2023-04-21T06:46:33.455Z,118.13
2023-04-21T06:47:33.433Z,118.13
2023-04-21T06:48:33.392Z,118.13
2023-04-21T06:49:33.507Z,118.13
2023-04-21T06:50:33.406Z,118.13
2023-04-21T06:51:33.394Z,123.75
2023-04-21T06:52:33.527Z,123.75
2023-04-21T06:53:33.404Z,123.75
2023-04-21T06:54:33.453Z,123.75
2023-04-21T06:55:33.399Z,123.75
2023-04-21T06:56:33.402Z,123.75
2023-04-21T06:57:33.410Z,123.75
2023-04-21T06:58:33.447Z,123.75
2023-04-21T06:59:33.393Z,123.75
2023-04-21T07:00:33.518Z,123.75
2023-04-21T07:01:33.413Z,123.75
2023-04-21T07:02:33.586Z,123.75
2023-04-21T07:03:33.500Z,123.75
2023-04-21T07:04:33.507Z,123.75
2023-04-21T07:05:33.387Z,123.75
2023-04-21T07:06:33.410Z,123.75
2023-04-21T07:07:33.395Z,123.75
2023-04-21T07:08:33.385Z,123.75
2023-04-21T07:09:33.380Z,123.75
2023-04-21T07:10:33.436Z,123.75
2023-04-21T07:11:33.386Z,123.75
2023-04-21T07:12:33.524Z,129.38
2023-04-21T07:13:33.364Z,129.38
2023-04-21T07:14:33.361Z,129.38
2023-04-21T07:15:33.387Z,129.38
2023-04-21T07:16:33.384Z,129.38
2023-04-21T07:17:33.530Z,129.38
2023-04-21T07:18:33.378Z,129.38
2023-04-21T07:19:33.392Z,129.38
2023-04-21T07:20:33.399Z,129.38
2023-04-21T07:21:33.395Z,129.38
2023-04-21T07:22:33.401Z,129.38
2023-04-21T07:23:33.361Z,129.38
2023-04-21T07:24:33.357Z,129.38
2023-04-21T07:25:33.414Z,129.38
2023-04-21T07:26:33.695Z,129.38
2023-04-21T07:27:33.349Z,129.38
2023-04-21T07:28:33.359Z,129.38
2023-04-21T07:29:33.370Z,129.38
2023-04-21T07:30:33.369Z,129.38
2023-04-21T07:31:33.638Z,129.38
2023-04-21T07:32:33.364Z,135.00
2023-04-21T07:33:33.372Z,135.00
2023-04-21T07:34:33.473Z,135.00
2023-04-21T07:35:33.370Z,135.00
2023-04-21T07:36:33.348Z,135.00
2023-04-21T07:37:33.452Z,135.00
2023-04-21T07:38:34.735Z,129.38
2023-04-21T07:39:33.364Z,135.00
2023-04-21T07:40:33.323Z,135.00
2023-04-21T07:41:33.414Z,135.00
2023-04-21T07:42:33.495Z,135.00
2023-04-21T07:43:33.323Z,135.00
2023-04-21T07:44:33.347Z,129.38
2023-04-21T07:45:33.338Z,135.00
2023-04-21T07:46:33.349Z,135.00
2023-04-21T07:47:34.294Z,135.00
2023-04-21T07:48:33.414Z,135.00
2023-04-21T07:49:33.379Z,135.00
2023-04-21T07:50:33.386Z,135.00
2023-04-21T07:51:33.917Z,135.00
2023-04-21T07:52:33.381Z,129.38
2023-04-21T07:53:33.314Z,135.00
2023-04-21T07:54:33.536Z,135.00
2023-04-21T07:55:33.361Z,135.00
2023-04-21T07:56:33.416Z,135.00
2023-04-21T07:57:33.826Z,129.38
2023-04-21T07:58:33.329Z,135.00
2023-04-21T07:59:33.407Z,135.00
2023-04-21T08:00:33.358Z,135.00
2023-04-21T08:01:33.318Z,135.00
2023-04-21T08:02:33.395Z,129.38
2023-04-21T08:03:33.654Z,129.38
2023-04-21T08:04:33.837Z,129.38
2023-04-21T08:05:35.751Z,129.38
2023-04-21T08:06:33.521Z,135.00
2023-04-21T08:07:33.494Z,129.38
2023-04-21T08:08:33.363Z,135.00
2023-04-21T08:09:33.318Z,135.00
2023-04-21T08:10:33.368Z,135.00
2023-04-21T08:11:33.313Z,135.00
2023-04-21T08:12:34.118Z,135.00
2023-04-21T08:13:33.415Z,135.00
2023-04-21T08:14:33.415Z,135.00
2023-04-21T08:15:33.357Z,135.00
2023-04-21T08:16:33.558Z,135.00
2023-04-21T08:17:33.445Z,135.00
2023-04-21T08:18:33.326Z,129.38
2023-04-21T08:19:33.338Z,135.00
2023-04-21T08:20:33.326Z,135.00
2023-04-21T08:21:33.438Z,135.00
2023-04-21T08:22:33.443Z,135.00
2023-04-21T08:23:33.469Z,135.00
2023-04-21T08:24:33.301Z,135.00
2023-04-21T08:25:33.330Z,135.00
2023-04-21T08:26:33.364Z,135.00
2023-04-21T08:27:33.366Z,135.00
2023-04-21T08:28:33.349Z,135.00
2023-04-21T08:29:33.410Z,135.00
2023-04-21T08:30:33.445Z,135.00
2023-04-21T08:31:33.354Z,140.63
2023-04-21T08:32:33.334Z,146.25
2023-04-21T08:33:33.342Z,146.25
2023-04-21T08:34:33.344Z,146.25
2023-04-21T08:35:33.294Z,140.63
2023-04-21T08:36:33.284Z,140.63
2023-04-21T08:37:33.288Z,135.00
2023-04-21T08:38:33.297Z,135.00
2023-04-21T08:39:33.304Z,140.63
2023-04-21T08:40:33.313Z,140.63
2023-04-21T08:41:33.295Z,135.00
2023-04-21T08:42:33.316Z,135.00
2023-04-21T08:43:33.416Z,129.38
2023-04-21T08:44:33.347Z,129.38
2023-04-21T08:45:33.355Z,129.38
2023-04-21T08:46:33.352Z,129.38
2023-04-21T08:47:33.550Z,129.38
2023-04-21T08:48:33.290Z,129.38
2023-04-21T08:49:33.292Z,129.38
2023-04-21T08:50:33.281Z,135.00
2023-04-21T08:51:33.352Z,135.00
2023-04-21T08:52:33.284Z,129.38
2023-04-21T08:53:33.313Z,129.38
2023-04-21T08:54:33.302Z,123.75
2023-04-21T08:55:33.291Z,129.38
2023-04-21T08:56:33.281Z,129.38
2023-04-21T08:57:33.341Z,129.38
2023-04-21T08:58:33.311Z,129.38
2023-04-21T08:59:33.291Z,129.38
2023-04-21T09:00:33.355Z,129.38
2023-04-21T09:01:33.355Z,129.38
2023-04-21T09:02:33.411Z,129.38
2023-04-21T09:03:33.543Z,129.38
2023-04-21T09:04:33.512Z,129.38
2023-04-21T09:05:33.770Z,129.38
2023-04-21T09:06:33.398Z,129.38
2023-04-21T09:07:33.287Z,129.38
2023-04-21T09:08:33.287Z,129.38
2023-04-21T09:09:33.388Z,129.38
2023-04-21T09:13:05.904Z,129.38
2023-04-21T09:14:05.884Z,129.38
2023-04-21T09:15:05.889Z,129.38
2023-04-21T09:16:08.470Z,129.38
2023-04-21T09:17:06.153Z,129.38
2023-04-21T09:18:05.928Z,123.75
2023-04-21T09:19:05.900Z,123.75
2023-04-21T09:20:05.922Z,129.38
2023-04-21T09:21:05.983Z,129.38
2023-04-21T09:22:05.933Z,129.38
2023-04-21T09:23:05.895Z,123.75
2023-04-21T09:24:05.944Z,123.75
2023-04-21T09:25:05.919Z,129.38
2023-04-21T09:26:06.060Z,129.38
2023-04-21T09:27:06.068Z,129.38
2023-04-21T09:28:05.911Z,129.38
2023-04-21T09:29:05.981Z,129.38
2023-04-21T09:30:05.876Z,129.38
2023-04-21T09:31:05.958Z,129.38
2023-04-21T09:32:05.992Z,129.38
2023-04-21T09:33:13.345Z,129.38
2023-04-21T09:34:05.984Z,129.38
2023-04-21T09:35:06.023Z,135.00
2023-04-21T09:36:05.914Z,135.00
2023-04-21T09:37:05.931Z,135.00
2023-04-21T09:38:05.947Z,135.00
2023-04-21T09:40:05.902Z,135.00
2023-04-21T09:41:05.958Z,135.00
2023-04-21T09:42:05.958Z,129.38
2023-04-21T09:43:05.922Z,129.38
2023-04-21T09:44:05.888Z,129.38
2023-04-21T09:46:06.300Z,129.38
2023-04-21T09:47:05.990Z,129.38
2023-04-21T09:48:06.741Z,129.38
2023-04-21T09:49:05.885Z,129.38
2023-04-21T09:50:06.948Z,129.38
2023-04-21T09:52:18.464Z,129.38
2023-04-21T09:53:05.914Z,135.00
2023-04-21T09:54:12.964Z,135.00
2023-04-21T09:55:05.944Z,140.63
2023-04-21T09:56:05.894Z,140.63
2023-04-21T09:57:05.944Z,146.25
2023-04-21T09:58:05.911Z,146.25
2023-04-21T09:59:05.952Z,151.88
2023-04-21T10:00:05.919Z,151.88
2023-04-21T10:01:05.927Z,151.88
2023-04-21T10:02:06.083Z,157.50
2023-04-21T10:13:18.100Z,151.88
2023-04-21T10:14:18.177Z,151.88
2023-04-21T10:15:18.082Z,151.88
2023-04-21T10:16:18.073Z,151.88
2023-04-21T10:17:18.351Z,151.88
2023-04-21T10:18:18.038Z,151.88
2023-04-21T10:19:18.303Z,151.88
2023-04-21T10:20:18.039Z,151.88
2023-04-21T10:21:18.038Z,151.88
2023-04-21T10:22:18.060Z,151.88
2023-04-21T10:23:18.047Z,151.88
2023-04-21T10:24:18.305Z,157.50
2023-04-21T10:25:18.024Z,157.50
2023-04-21T10:26:18.076Z,163.13
2023-04-21T10:27:18.031Z,163.13
2023-04-21T10:28:18.086Z,163.13
2023-04-21T10:29:18.447Z,168.75
2023-04-21T10:30:18.205Z,168.75
2023-04-21T10:31:18.208Z,163.13
2023-04-21T10:32:18.074Z,163.13
2023-04-21T10:33:18.090Z,163.13
2023-04-21T10:34:18.233Z,168.75
2023-04-21T10:35:18.097Z,168.75
2023-04-21T10:36:18.044Z,168.75
2023-04-21T10:37:18.090Z,174.38
2023-04-21T10:38:18.053Z,168.75
2023-04-21T10:39:18.242Z,168.75
2023-04-21T10:40:18.059Z,168.75
2023-04-21T10:41:18.063Z,168.75
2023-04-21T10:42:18.105Z,168.75
2023-04-21T10:43:18.044Z,168.75
2023-04-21T10:44:18.446Z,168.75
2023-04-21T10:45:18.110Z,174.38
2023-04-21T10:46:18.107Z,168.75
2023-04-21T10:47:18.128Z,174.38
2023-04-21T10:48:18.085Z,174.38
2023-04-21T10:49:18.059Z,180.00
2023-04-21T10:50:18.092Z,180.00
2023-04-21T10:51:18.072Z,180.00
2023-04-21T10:52:18.085Z,180.00
2023-04-21T10:53:18.087Z,180.00
2023-04-21T10:54:18.412Z,174.38
2023-04-21T10:55:18.148Z,174.38
2023-04-21T10:56:18.079Z,185.63
2023-04-21T10:57:18.092Z,185.63
2023-04-21T10:58:18.122Z,185.63
2023-04-21T10:59:18.093Z,191.25
2023-04-21T11:00:18.072Z,196.88
2023-04-21T11:01:18.137Z,196.88
2023-04-21T11:02:18.313Z,202.50
2023-04-21T11:03:18.381Z,196.88
2023-04-21T11:04:18.354Z,185.63
2023-04-21T11:05:18.110Z,202.50
2023-04-21T11:06:18.107Z,208.13
2023-04-21T11:07:18.097Z,196.88
2023-04-21T11:08:18.120Z,213.75
2023-04-21T11:09:18.184Z,213.75
2023-04-21T11:10:18.143Z,219.38
2023-04-21T11:11:18.125Z,219.38
2023-04-21T11:12:18.228Z,230.63
2023-04-21T11:13:18.237Z,230.63
2023-04-21T11:14:18.312Z,230.63
2023-04-21T11:15:20.094Z,230.63
2023-04-21T11:16:18.221Z,236.25
2023-04-21T11:17:18.366Z,241.88
2023-04-21T11:18:18.785Z,241.88
2023-04-21T11:19:18.175Z,241.88
2023-04-21T11:20:18.157Z,241.88
2023-04-21T11:21:18.494Z,247.50
2023-04-21T11:22:18.194Z,247.50
2023-04-21T11:23:18.151Z,247.50
2023-04-21T11:24:18.440Z,253.13
2023-04-21T11:25:18.166Z,247.50
2023-04-21T11:26:18.214Z,253.13
2023-04-21T11:27:18.172Z,241.88
2023-04-21T11:28:18.190Z,258.75
2023-04-21T11:29:18.164Z,264.38
2023-04-21T11:30:18.215Z,264.38
2023-04-21T11:31:18.226Z,247.50
2023-04-21T11:32:18.186Z,275.63
2023-04-21T11:33:18.253Z,275.63
2023-04-21T11:34:18.365Z,270.00
2023-04-21T11:35:18.230Z,275.63
2023-04-21T11:36:18.214Z,281.25
2023-04-21T11:37:18.192Z,286.88
2023-04-21T11:38:18.216Z,309.38
2023-04-21T11:39:20.176Z,185.63
2023-04-21T11:40:18.234Z,191.25
2023-04-21T11:41:18.213Z,320.63
2023-04-21T11:42:18.216Z,180.00
2023-04-21T11:43:18.226Z,320.63
2023-04-21T11:44:18.224Z,320.63
2023-04-21T11:45:20.491Z,315.00
2023-04-21T11:46:18.337Z,320.63
2023-04-21T11:47:18.254Z,320.63
2023-04-21T11:48:18.262Z,331.88
2023-04-21T11:49:18.279Z,213.75
2023-04-21T11:50:18.251Z,309.38
2023-04-21T11:51:20.017Z,275.63
2023-04-21T11:52:18.278Z,360.00
2023-04-21T11:53:18.285Z,343.13
2023-04-21T11:54:18.305Z,376.88
2023-04-21T11:55:18.294Z,185.63
2023-04-21T11:56:18.272Z,393.75
2023-04-21T11:57:18.306Z,196.88
2023-04-21T11:58:18.346Z,399.38
2023-04-21T11:59:18.304Z,421.88
2023-04-21T12:00:18.294Z,421.88
2023-04-21T12:01:18.307Z,421.88
2023-04-21T12:02:18.409Z,421.88
2023-04-21T12:03:18.480Z,433.13
2023-04-21T12:04:18.469Z,427.50
2023-04-21T12:05:18.352Z,427.50
2023-04-21T12:06:18.385Z,292.50
2023-04-21T12:07:18.367Z,455.63
2023-04-21T12:08:18.348Z,230.63
2023-04-21T12:09:18.344Z,478.13
2023-04-21T12:10:18.324Z,478.13
2023-04-21T12:11:18.387Z,483.75
2023-04-21T12:12:18.361Z,495.00
2023-04-21T12:13:18.388Z,511.88
2023-04-21T12:14:18.378Z,517.50
2023-04-21T12:15:18.394Z,511.88
2023-04-21T12:16:18.414Z,461.25
2023-04-21T12:17:18.399Z,545.63
2023-04-21T12:18:18.419Z,551.25
2023-04-21T12:19:18.379Z,556.88
2023-04-21T12:20:18.411Z,551.25
2023-04-21T12:21:18.407Z,236.25
2023-04-21T12:22:18.475Z,556.88
2023-04-21T12:23:18.407Z,506.25
2023-04-21T12:24:18.414Z,590.63
2023-04-21T12:25:18.524Z,562.50
2023-04-21T12:26:18.437Z,585.00
2023-04-21T12:27:18.485Z,590.63
2023-04-21T12:28:18.437Z,596.25
2023-04-21T12:29:18.452Z,607.50
2023-04-21T12:30:18.466Z,601.88
2023-04-21T12:31:18.476Z,607.50
2023-04-21T12:32:19.183Z,607.50
2023-04-21T12:33:18.565Z,596.25
2023-04-21T12:34:18.465Z,635.63
2023-04-21T12:35:18.457Z,646.88
2023-04-21T12:36:18.487Z,652.50
2023-04-21T12:37:18.525Z,658.13
2023-04-21T12:38:18.489Z,652.50
2023-04-21T12:39:18.491Z,658.13
2023-04-21T12:40:18.497Z,675.00
2023-04-21T12:41:18.506Z,669.38
2023-04-21T12:42:18.537Z,658.13
2023-04-21T12:43:18.506Z,652.50
2023-04-21T12:44:18.514Z,658.13
2023-04-21T12:45:18.531Z,663.75
2023-04-21T12:46:18.550Z,663.75
2023-04-21T12:47:18.547Z,669.38
2023-04-21T12:48:18.582Z,680.63
2023-04-21T12:49:18.555Z,675.00
2023-04-21T12:50:18.596Z,675.00
2023-04-21T12:51:18.612Z,680.63
2023-04-21T12:52:18.586Z,691.88
2023-04-21T12:53:18.606Z,703.13
2023-04-21T12:54:18.585Z,714.38
2023-04-21T12:55:18.595Z,742.50
2023-04-21T12:56:18.599Z,742.50
2023-04-21T12:57:18.632Z,753.75
2023-04-21T12:58:18.634Z,759.38
2023-04-21T12:59:18.616Z,646.88
2023-04-21T13:00:18.631Z,770.63
2023-04-21T13:01:18.721Z,607.50
2023-04-21T13:02:18.798Z,776.25
2023-04-21T13:03:18.737Z,348.75
2023-04-21T13:04:18.988Z,765.00
2023-04-21T13:05:18.710Z,731.25
2023-04-21T13:06:18.671Z,798.75
2023-04-21T13:07:18.678Z,798.75
2023-04-21T13:08:18.699Z,421.88
2023-04-21T13:09:18.750Z,343.13
2023-04-21T13:10:18.700Z,275.63
2023-04-21T13:11:18.736Z,371.25
2023-04-21T13:12:18.738Z,376.88
2023-04-21T13:13:18.707Z,523.13
2023-04-21T13:14:18.766Z,787.50
2023-04-21T13:15:18.747Z,787.50
2023-04-21T13:16:18.800Z,781.88
2023-04-21T13:17:18.892Z,798.75
2023-04-21T13:18:18.763Z,793.13
2023-04-21T13:19:18.761Z,781.88
2023-04-21T13:20:18.783Z,781.88
2023-04-21T13:21:18.792Z,781.88
2023-04-21T13:22:18.795Z,770.63
2023-04-21T13:23:18.785Z,753.75
2023-04-21T13:24:18.809Z,742.50
2023-04-21T13:25:18.866Z,736.88
2023-04-21T13:26:18.831Z,736.88
2023-04-21T13:27:18.831Z,725.63
2023-04-21T13:28:18.823Z,765.00
2023-04-21T13:29:18.860Z,765.00
2023-04-21T13:30:18.844Z,759.38
2023-04-21T13:31:18.957Z,765.00
2023-04-21T13:32:18.872Z,765.00
2023-04-21T13:33:18.900Z,770.63
2023-04-21T13:34:18.921Z,770.63
2023-04-21T13:35:18.882Z,748.13
2023-04-21T13:36:18.986Z,742.50
2023-04-21T13:37:18.955Z,748.13
2023-04-21T13:38:18.908Z,753.75
2023-04-21T13:40:51.546Z,759.38
2023-04-21T13:41:53.998Z,765.00
2023-04-21T13:42:51.521Z,765.00
2023-04-21T13:43:51.550Z,815.63
2023-04-21T13:44:51.554Z,832.50
2023-04-21T13:45:51.605Z,1046.25
2023-04-21T13:46:51.605Z,1434.38
2023-04-21T13:47:51.641Z,1816.88
2023-04-21T13:48:51.677Z,1642.50
2023-04-21T13:49:51.604Z,1057.50
2023-04-21T13:50:51.603Z,787.50
2023-04-21T13:51:51.656Z,765.00
2023-04-21T13:52:51.634Z,793.13
2023-04-21T13:53:51.636Z,1260.00
2023-04-21T13:54:51.626Z,2154.38
2023-04-21T13:55:51.652Z,2475.00
2023-04-21T13:56:51.701Z,2435.63
2023-04-21T13:57:51.666Z,2289.38
2023-04-21T13:58:51.692Z,2266.88
2023-04-21T13:59:51.675Z,2278.13
2023-04-21T14:00:51.691Z,2283.75
2023-04-21T14:01:51.732Z,2340.00
2023-04-21T14:02:51.881Z,2413.13
2023-04-21T14:03:52.004Z,2469.38
2023-04-21T14:04:51.810Z,2452.50
2023-04-21T14:05:51.860Z,2401.88
2023-04-21T14:06:51.734Z,2345.63
2023-04-21T14:07:51.798Z,2221.88
2023-04-21T14:08:51.765Z,2176.88
2023-04-21T14:09:51.787Z,2176.88
2023-04-21T14:10:51.789Z,2171.25
2023-04-21T14:11:51.788Z,2115.00
2023-04-21T14:12:51.840Z,1985.63
2023-04-21T14:14:04.860Z,1884.38
2023-04-21T14:14:51.862Z,1800.00
2023-04-21T14:15:51.849Z,2064.38
2023-04-21T14:16:51.851Z,2053.13
2023-04-21T14:17:51.879Z,540.00
2023-04-21T14:18:51.890Z,281.25
2023-04-21T14:19:54.397Z,1648.13
2023-04-21T14:20:51.874Z,2081.25
2023-04-21T14:21:51.917Z,523.13
2023-04-21T14:22:51.891Z,793.13
2023-04-21T14:23:51.883Z,1136.25
2023-04-21T14:24:51.965Z,1141.88
2023-04-21T14:25:53.081Z,1462.50
2023-04-21T14:26:51.921Z,1980.00
2023-04-21T14:27:51.972Z,1951.88
2023-04-21T14:28:51.931Z,2008.13
2023-04-21T14:29:51.930Z,1951.88
2023-04-21T14:30:52.043Z,1608.75
2023-04-21T14:31:52.014Z,241.88
2023-04-21T14:32:51.978Z,191.25
2023-04-21T14:33:51.960Z,208.13
2023-04-21T14:34:51.996Z,1310.63
2023-04-21T14:35:52.012Z,1766.25
2023-04-21T14:36:52.030Z,1783.13
2023-04-21T14:37:53.973Z,225.00
2023-04-21T14:38:51.994Z,1833.75
2023-04-21T14:39:51.995Z,1766.25
2023-04-21T14:40:52.043Z,315.00
2023-04-21T14:41:52.226Z,1226.25
2023-04-21T14:42:52.052Z,1755.00
2023-04-21T14:43:52.029Z,1822.50
2023-04-21T14:44:52.095Z,1816.88
2023-04-21T14:45:52.129Z,1890.00
2023-04-21T14:47:05.742Z,1845.00
2023-04-21T14:47:52.147Z,1749.38
2023-04-21T14:48:52.052Z,1642.50
2023-04-21T14:49:53.979Z,1507.50
2023-04-21T14:50:52.095Z,1203.75
2023-04-21T14:51:52.109Z,1670.63
2023-04-21T14:52:52.088Z,225.00
2023-04-21T14:53:52.134Z,1698.75
2023-04-21T14:54:52.085Z,1743.75
2023-04-21T14:55:54.296Z,1766.25
2023-04-21T14:56:58.092Z,1743.75
2023-04-21T14:57:52.118Z,1760.63
2023-04-21T14:58:52.187Z,258.75
2023-04-21T14:59:52.159Z,1693.13
2023-04-21T15:00:52.263Z,1743.75
2023-04-21T15:01:52.184Z,1749.38
2023-04-21T15:02:52.213Z,1710.00
2023-04-21T15:03:52.404Z,1681.88
2023-04-21T15:04:52.251Z,1653.75
2023-04-21T15:05:52.262Z,1603.13
2023-04-21T15:06:52.292Z,1558.13
2023-04-21T15:07:52.160Z,1496.25
2023-04-21T15:08:52.245Z,1479.38
2023-04-21T15:09:52.235Z,1524.38
2023-04-21T15:10:52.268Z,787.50
2023-04-21T15:11:52.241Z,202.50
2023-04-21T15:12:52.237Z,1366.88
2023-04-21T15:13:52.247Z,1333.13
2023-04-21T15:14:52.256Z,978.75
2023-04-21T15:15:52.264Z,168.75
2023-04-21T15:16:52.289Z,157.50
2023-04-21T15:17:52.358Z,163.13
2023-04-21T15:18:52.275Z,157.50
2023-04-21T15:19:52.238Z,191.25
2023-04-21T15:20:52.274Z,1001.25
2023-04-21T15:21:52.252Z,506.25
2023-04-21T15:22:52.269Z,1102.50
2023-04-21T15:23:52.267Z,1192.50
2023-04-21T15:24:54.371Z,1271.25
2023-04-21T15:25:52.274Z,1276.88
2023-04-21T15:26:52.311Z,1254.38
2023-04-21T15:27:52.297Z,933.75
2023-04-21T15:28:52.388Z,1226.25
2023-04-21T15:29:52.320Z,1001.25
2023-04-21T15:30:52.330Z,905.63
2023-04-21T15:31:52.310Z,849.38
2023-04-21T15:32:52.392Z,765.00
2023-04-21T15:33:52.326Z,140.63
2023-04-21T15:34:52.320Z,135.00
2023-04-21T15:35:52.346Z,129.38
2023-04-21T15:36:52.329Z,135.00
2023-04-21T15:37:52.354Z,185.63
2023-04-21T15:38:52.359Z,196.88
2023-04-21T15:39:52.354Z,185.63
2023-04-21T15:41:00.595Z,174.38
2023-04-21T15:41:52.433Z,168.75
2023-04-21T15:42:52.398Z,163.13
2023-04-21T15:43:52.375Z,163.13
2023-04-21T15:44:52.350Z,163.13
2023-04-21T15:45:52.400Z,163.13
2023-04-21T15:46:52.515Z,157.50
2023-04-21T15:47:52.560Z,157.50
2023-04-21T15:48:52.406Z,151.88
2023-04-21T15:49:52.430Z,146.25
2023-04-21T15:50:52.394Z,146.25
2023-04-21T15:51:52.459Z,140.63
2023-04-21T15:52:52.387Z,140.63
2023-04-21T15:53:52.387Z,135.00
2023-04-21T15:54:52.417Z,135.00
2023-04-21T15:55:52.399Z,129.38
2023-04-21T15:56:52.490Z,129.38
2023-04-21T15:57:52.380Z,129.38
2023-04-21T15:58:52.394Z,135.00
2023-04-21T15:59:52.399Z,135.00
2023-04-21T16:00:52.436Z,135.00
2023-04-21T16:12:20.051Z,112.50
2023-04-21T16:13:20.046Z,106.88
2023-04-21T16:14:20.135Z,106.88
2023-04-21T16:15:24.474Z,106.88
2023-04-21T16:16:20.133Z,106.88
2023-04-21T16:17:20.017Z,106.88
2023-04-21T16:18:20.108Z,106.88
2023-04-21T16:19:20.072Z,106.88
2023-04-21T16:20:20.069Z,106.88
2023-04-21T16:21:20.150Z,101.25
2023-04-21T16:22:20.051Z,101.25
2023-04-21T16:23:19.993Z,95.63
2023-04-21T16:24:20.052Z,95.63
2023-04-21T16:25:20.121Z,95.63
2023-04-21T16:26:20.016Z,95.63
2023-04-21T16:27:20.018Z,95.63
2023-04-21T16:28:20.113Z,95.63
2023-04-21T16:29:20.011Z,95.63
2023-04-21T16:30:20.084Z,101.25
2023-04-21T16:31:20.063Z,90.00
2023-04-21T16:32:20.100Z,90.00
2023-04-21T16:33:19.997Z,90.00
2023-04-21T16:34:20.035Z,90.00
2023-04-21T16:35:20.050Z,90.00
2023-04-21T16:36:20.001Z,90.00
2023-04-21T16:37:20.086Z,78.75
2023-04-21T16:38:20.072Z,73.13
2023-04-21T16:39:20.051Z,73.13
2023-04-21T16:40:20.110Z,73.13
2023-04-21T16:41:21.179Z,67.50
2023-04-21T16:42:20.045Z,73.13
2023-04-21T16:43:20.017Z,73.13
2023-04-21T16:44:20.057Z,73.13
2023-04-21T16:45:20.002Z,73.13
2023-04-21T16:46:20.092Z,73.13
2023-04-21T16:47:20.033Z,73.13
2023-04-21T16:48:20.122Z,73.13
2023-04-21T16:49:20.020Z,73.13
2023-04-21T16:50:20.067Z,73.13
2023-04-21T16:51:20.008Z,73.13
2023-04-21T16:52:19.997Z,73.13
2023-04-21T16:53:19.995Z,67.50
2023-04-21T16:54:20.016Z,67.50
2023-04-21T16:55:19.993Z,61.88
2023-04-21T16:56:20.023Z,61.88
2023-04-21T16:57:20.020Z,61.88
2023-04-21T16:58:19.982Z,61.88
2023-04-21T16:59:20.018Z,61.88
2023-04-21T17:00:20.013Z,61.88
2023-04-21T17:01:20.058Z,56.25